Time;durP1;ratioP1;P1;durP2;ratioP2;P2;SDS_P1;SDS_P2;PMS_P1;PMS_P2;Temp;Humidity;BMP_temperature;BMP_pressure;BME280_temperature;BME280_humidity;BME280_pressure;Samples;Min_cycle;Max_cycle;Signal;HPM_P1;HPM_P2
2022/04/02 00:01:52;;;;;;;8.30;4.93;;;4.10;99.90;;;;;;5031243;28;20178;-62
2022/04/02 00:04:18;;;;;;;11.97;5.23;;;4.00;99.90;;;;;;5031212;28;20636;-62
2022/04/02 00:06:44;;;;;;;7.90;5.33;;;3.90;99.90;;;;;;5030809;28;20297;-63
2022/04/02 00:09:10;;;;;;;11.43;5.47;;;3.90;99.90;;;;;;5030835;28;20247;-62
2022/04/02 00:11:36;;;;;;;11.30;5.03;;;4.00;99.90;;;;;;5030861;28;20236;-63
2022/04/02 00:14:01;;;;;;;10.57;4.97;;;3.90;99.90;;;;;;5030892;28;20181;-62
2022/04/02 00:16:27;;;;;;;11.57;5.20;;;3.70;99.90;;;;;;5030991;28;20665;-63
2022/04/02 00:18:53;;;;;;;7.30;4.87;;;3.10;99.90;;;;;;5030175;28;20257;-63
2022/04/02 00:21:19;;;;;;;10.73;5.23;;;3.80;99.90;;;;;;5030396;28;20209;-63
2022/04/02 00:23:46;;;;;;;7.03;4.90;;;3.80;99.90;;;;;;5028662;28;20178;-62
2022/04/02 00:26:21;;;;;;;9.13;5.17;;;3.90;99.90;;;;;;5030223;28;20288;-61
2022/04/02 00:28:49;;;;;;;8.77;5.20;;;3.90;99.90;;;;;;5030507;28;20186;-62
2022/04/02 00:31:16;;;;;;;8.33;4.80;;;3.80;99.90;;;;;;5030205;28;20244;-62
2022/04/02 00:33:45;;;;;;;6.97;4.83;;;3.80;99.90;;;;;;5029825;28;20605;-61
2022/04/02 00:36:12;;;;;;;8.80;5.20;;;3.80;99.90;;;;;;5029114;28;20426;-61
2022/04/02 00:38:39;;;;;;;7.10;5.10;;;3.70;99.90;;;;;;5030362;28;20707;-62
2022/04/02 00:41:06;;;;;;;7.17;5.37;;;3.70;99.90;;;;;;5009367;28;20174;-62
2022/04/02 00:43:38;;;;;;;9.93;5.10;;;3.60;99.90;;;;;;5027132;28;20553;-62
2022/04/02 00:46:10;;;;;;;9.63;5.97;;;3.50;99.90;;;;;;5030217;28;20237;-62
2022/04/02 00:48:38;;;;;;;9.50;5.67;;;3.40;99.90;;;;;;5030069;28;20556;-62
2022/04/02 00:51:06;;;;;;;9.97;5.87;;;3.30;99.90;;;;;;5030186;28;20200;-62
2022/04/02 00:53:36;;;;;;;9.50;5.87;;;3.30;99.90;;;;;;5029554;28;20177;-62
2022/04/02 00:56:04;;;;;;;15.63;5.97;;;3.30;99.90;;;;;;5030178;28;20174;-62
2022/04/02 00:58:30;;;;;;;10.70;5.77;;;3.40;99.90;;;;;;5029681;28;20185;-63
2022/04/02 01:00:56;;;;;;;9.73;6.00;;;3.40;99.90;;;;;;5029601;28;20208;-62
2022/04/02 01:03:22;;;;;;;11.20;6.83;;;3.40;99.90;;;;;;5029905;28;20206;-62
2022/04/02 01:05:48;;;;;;;13.67;6.90;;;3.40;99.90;;;;;;5030118;28;20226;-62
2022/04/02 01:08:14;;;;;;;11.03;5.73;;;3.50;99.90;;;;;;5030154;28;20182;-62
2022/04/02 01:10:40;;;;;;;11.70;6.90;;;3.40;99.90;;;;;;5030009;28;20518;-62
2022/04/02 01:13:10;;;;;;;8.53;6.33;;;3.40;99.90;;;;;;5028265;28;20178;-62
2022/04/02 01:15:37;;;;;;;10.67;6.60;;;3.40;99.90;;;;;;5030053;28;20698;-62
2022/04/02 01:18:04;;;;;;;8.67;6.37;;;3.40;99.90;;;;;;5029481;28;20170;-62
2022/04/02 01:20:30;;;;;;;9.53;5.97;;;3.20;99.90;;;;;;5030026;28;20174;-62
2022/04/02 01:22:59;;;;;;;9.63;6.37;;;3.30;99.90;;;;;;5029127;28;20279;-62
2022/04/02 01:25:25;;;;;;;11.37;6.40;;;3.10;99.90;;;;;;5029699;28;20640;-63
2022/04/02 01:27:52;;;;;;;9.13;6.37;;;3.10;99.90;;;;;;5029723;28;20237;-63
2022/04/02 01:30:18;;;;;;;10.03;6.53;;;3.10;99.90;;;;;;5031039;28;20636;-62
2022/04/02 01:32:44;;;;;;;10.80;6.23;;;3.10;99.90;;;;;;5033658;28;20205;-62
2022/04/02 01:35:12;;;;;;;10.23;6.73;;;3.10;99.90;;;;;;5033032;28;20272;-60
2022/04/02 01:37:38;;;;;;;9.83;5.97;;;3.00;99.90;;;;;;5032050;28;20212;-61
2022/04/02 01:40:06;;;;;;;10.77;6.13;;;3.10;99.90;;;;;;5033687;28;20177;-61
2022/04/02 01:42:32;;;;;;;10.50;5.80;;;3.00;99.90;;;;;;5033229;28;20205;-61
2022/04/02 01:44:59;;;;;;;10.40;6.03;;;2.90;99.90;;;;;;5034033;28;20667;-61
2022/04/02 01:47:25;;;;;;;9.17;5.93;;;2.90;99.90;;;;;;5033571;28;20322;-61
2022/04/02 01:49:51;;;;;;;10.40;6.17;;;2.80;99.90;;;;;;5033322;28;20571;-61
2022/04/02 01:52:19;;;;;;;11.43;6.27;;;2.80;99.90;;;;;;5033246;28;20176;-61
2022/04/02 01:54:46;;;;;;;9.57;5.90;;;2.80;99.90;;;;;;5033401;28;20701;-61
2022/04/02 01:57:12;;;;;;;10.40;6.73;;;2.70;99.90;;;;;;5032784;28;20177;-60
2022/04/02 01:59:44;;;;;;;12.20;6.93;;;2.70;99.90;;;;;;5033030;28;20601;-61
2022/04/02 02:02:11;;;;;;;14.97;7.33;;;2.60;99.90;;;;;;5032668;28;20174;-60
2022/04/02 02:04:37;;;;;;;11.30;6.83;;;2.50;99.90;;;;;;5033598;28;20213;-61
2022/04/02 02:07:04;;;;;;;11.67;7.27;;;2.50;99.90;;;;;;5033101;28;20213;-61
2022/04/02 02:09:30;;;;;;;11.27;6.57;;;2.40;99.90;;;;;;5032818;28;20177;-61
2022/04/02 02:11:56;;;;;;;8.97;6.53;;;2.40;99.90;;;;;;5032978;28;20194;-61
2022/04/02 02:14:22;;;;;;;9.23;6.47;;;2.40;99.90;;;;;;5033102;28;20292;-61
2022/04/02 02:16:49;;;;;;;10.67;6.40;;;2.40;99.90;;;;;;5032477;28;20247;-62
2022/04/02 02:19:15;;;;;;;11.80;6.17;;;2.40;99.90;;;;;;5033076;28;20253;-61
2022/04/02 02:21:41;;;;;;;9.63;5.93;;;2.40;99.90;;;;;;5032694;28;20277;-60
2022/04/02 02:24:08;;;;;;;9.90;6.00;;;2.50;99.90;;;;;;5032690;28;20169;-61
2022/04/02 02:26:34;;;;;;;13.33;6.53;;;2.50;99.90;;;;;;5029689;28;20210;-61
2022/04/02 02:29:01;;;;;;;10.97;6.53;;;2.40;99.90;;;;;;5012940;28;20177;-61
2022/04/02 02:31:27;;;;;;;12.27;6.30;;;2.30;99.90;;;;;;5013205;28;20190;-61
2022/04/02 02:36:36;;;;;;;13.53;6.57;;;2.40;99.90;;;;;;5032261;28;20228;-61
2022/04/02 02:39:02;;;;;;;10.30;6.40;;;2.40;99.90;;;;;;5032683;28;20219;-61
2022/04/02 02:41:28;;;;;;;8.63;6.17;;;2.40;99.90;;;;;;5031239;28;20261;-61
2022/04/02 02:43:54;;;;;;;10.27;6.50;;;2.40;99.90;;;;;;5032430;28;20687;-62
2022/04/02 02:46:20;;;;;;;9.43;6.07;;;2.40;99.90;;;;;;5032176;28;20217;-61
2022/04/02 02:48:47;;;;;;;11.40;5.90;;;2.40;99.90;;;;;;5032623;28;20181;-61
2022/04/02 02:51:13;;;;;;;8.40;6.00;;;2.40;99.90;;;;;;5032332;28;20169;-62
2022/04/02 02:53:39;;;;;;;10.77;6.60;;;2.40;99.90;;;;;;5032312;28;20174;-61
2022/04/02 02:56:06;;;;;;;12.27;6.67;;;2.40;99.90;;;;;;5032721;28;20237;-61
2022/04/02 02:58:32;;;;;;;11.73;5.60;;;2.40;99.90;;;;;;5031793;28;20186;-60
2022/04/02 03:00:57;;;;;;;9.37;5.90;;;2.30;99.90;;;;;;5032282;28;20176;-61
2022/04/02 03:03:24;;;;;;;10.97;5.87;;;2.20;99.90;;;;;;5031742;28;20710;-61
2022/04/02 03:05:50;;;;;;;12.30;6.23;;;2.10;99.90;;;;;;5030926;28;20206;-61
2022/04/02 03:08:16;;;;;;;11.83;6.10;;;1.90;99.90;;;;;;5032088;28;20185;-61
2022/04/02 03:10:44;;;;;;;11.77;6.47;;;1.70;99.90;;;;;;5032269;28;20586;-60
2022/04/02 03:13:10;;;;;;;9.23;6.40;;;1.70;99.90;;;;;;5031840;28;20188;-62
2022/04/02 03:15:36;;;;;;;10.57;6.37;;;1.70;99.90;;;;;;5032035;28;20182;-62
2022/04/02 03:18:04;;;;;;;9.77;6.10;;;1.70;99.90;;;;;;5031831;28;20211;-63
2022/04/02 03:20:30;;;;;;;11.03;6.20;;;1.80;99.90;;;;;;5031779;28;20162;-63
2022/04/02 03:22:55;;;;;;;10.30;6.67;;;1.80;99.90;;;;;;5031630;28;20178;-62
2022/04/02 03:25:21;;;;;;;12.07;6.53;;;1.90;99.90;;;;;;5031397;28;20716;-62
2022/04/02 03:27:47;;;;;;;10.63;6.67;;;1.90;99.90;;;;;;5031666;28;20214;-62
2022/04/02 03:30:16;;;;;;;11.40;7.20;;;1.90;99.90;;;;;;5031034;28;20201;-62
2022/04/02 03:32:42;;;;;;;11.23;6.87;;;1.90;99.90;;;;;;5031506;28;20174;-62
2022/04/02 03:35:09;;;;;;;10.30;6.53;;;1.90;99.90;;;;;;5031331;28;20265;-62
2022/04/02 03:37:39;;;;;;;9.50;6.33;;;1.90;99.90;;;;;;5030952;28;20264;-61
2022/04/02 03:40:10;;;;;;;10.07;7.10;;;1.90;99.90;;;;;;5031383;28;20244;-61
2022/04/02 03:42:39;;;;;;;17.50;6.93;;;1.90;99.90;;;;;;5029503;28;20178;-60
2022/04/02 03:45:06;;;;;;;10.70;6.40;;;1.70;99.90;;;;;;5029631;28;20177;-61
2022/04/02 03:47:32;;;;;;;13.87;5.97;;;1.80;99.90;;;;;;5031571;28;20209;-60
2022/04/02 03:49:58;;;;;;;13.77;6.50;;;1.60;99.90;;;;;;5031067;28;20200;-59
2022/04/02 03:52:25;;;;;;;12.57;6.30;;;1.50;99.90;;;;;;5029246;28;20205;-61
2022/04/02 03:54:51;;;;;;;12.57;6.67;;;1.50;99.90;;;;;;5029957;28;20189;-62
2022/04/02 03:57:17;;;;;;;10.73;6.90;;;1.50;99.90;;;;;;5030701;28;20264;-62
2022/04/02 03:59:44;;;;;;;11.70;5.80;;;1.40;99.90;;;;;;5030574;28;20253;-62
2022/04/02 04:02:10;;;;;;;11.63;6.40;;;1.50;99.90;;;;;;5030662;28;20807;-61
2022/04/02 04:04:37;;;;;;;12.80;7.03;;;1.40;99.90;;;;;;5031112;28;20197;-61
2022/04/02 04:07:04;;;;;;;12.70;6.63;;;1.40;99.90;;;;;;5030521;28;20681;-61
2022/04/02 04:09:30;;;;;;;11.13;7.53;;;1.40;99.90;;;;;;5029673;28;20292;-61
2022/04/02 04:11:55;;;;;;;11.17;7.33;;;1.40;99.90;;;;;;5030604;28;20213;-62
2022/04/02 04:14:25;;;;;;;10.93;6.67;;;1.40;99.90;;;;;;5028327;28;20203;-61
2022/04/02 04:16:53;;;;;;;9.70;6.27;;;1.30;99.90;;;;;;5029176;28;20544;-62
2022/04/02 04:19:19;;;;;;;12.17;7.23;;;1.30;99.90;;;;;;5030633;28;20242;-62
2022/04/02 04:21:45;;;;;;;12.63;7.70;;;1.20;99.90;;;;;;5030603;28;20265;-62
2022/04/02 04:24:11;;;;;;;11.17;7.03;;;1.20;99.90;;;;;;5030183;28;20700;-61
2022/04/02 04:26:38;;;;;;;10.60;6.97;;;1.30;99.90;;;;;;5030258;28;20213;-61
2022/04/02 04:29:04;;;;;;;16.60;7.37;;;1.30;99.90;;;;;;5030155;28;20169;-60
2022/04/02 04:31:30;;;;;;;12.60;7.47;;;1.40;99.90;;;;;;5025527;28;20179;-62
2022/04/02 04:33:56;;;;;;;12.50;7.67;;;1.40;99.90;;;;;;5024359;28;20195;-63
2022/04/02 04:36:22;;;;;;;11.80;6.97;;;1.40;99.90;;;;;;5029321;28;20198;-63
2022/04/02 04:38:49;;;;;;;11.73;6.60;;;1.40;99.90;;;;;;5029211;28;20725;-62
2022/04/02 04:41:17;;;;;;;9.53;6.97;;;1.40;99.90;;;;;;5030516;28;20178;-60
2022/04/02 04:43:44;;;;;;;10.60;6.70;;;1.40;99.90;;;;;;5030206;28;20182;-60
2022/04/02 04:46:10;;;;;;;11.00;6.87;;;1.40;99.90;;;;;;5030262;28;20232;-61
2022/04/02 04:48:36;;;;;;;12.00;7.10;;;1.50;99.90;;;;;;5030420;28;20189;-61
2022/04/02 04:51:04;;;;;;;10.10;6.20;;;1.40;99.90;;;;;;5030507;28;20170;-61
2022/04/02 04:53:30;;;;;;;15.73;6.67;;;1.30;99.90;;;;;;5028522;28;20220;-61
2022/04/02 04:55:56;;;;;;;12.37;6.33;;;1.20;99.90;;;;;;5028348;28;20641;-61
2022/04/02 04:58:22;;;;;;;10.07;5.53;;;1.20;99.90;;;;;;5029974;28;20185;-61
2022/04/02 05:00:47;;;;;;;12.93;5.37;;;1.10;99.90;;;;;;5029730;28;20182;-61
2022/04/02 05:03:13;;;;;;;10.07;5.73;;;1.10;99.90;;;;;;5025136;28;20229;-61
2022/04/02 05:05:39;;;;;;;8.37;5.63;;;1.10;99.90;;;;;;5028130;28;20178;-61
2022/04/02 05:08:06;;;;;;;12.67;6.20;;;1.10;99.90;;;;;;5028562;28;20181;-61
2022/04/02 05:10:33;;;;;;;8.33;5.57;;;1.10;99.90;;;;;;5030317;28;20170;-61
2022/04/02 05:12:58;;;;;;;10.20;5.40;;;1.10;99.90;;;;;;5029714;28;20170;-61
2022/04/02 05:15:24;;;;;;;15.00;5.70;;;1.00;99.90;;;;;;5030130;28;20181;-61
2022/04/02 05:17:50;;;;;;;11.93;5.93;;;1.00;99.90;;;;;;5030159;28;20243;-61
2022/04/02 05:20:17;;;;;;;15.40;5.67;;;1.00;99.90;;;;;;5030105;28;20259;-61
2022/04/02 05:22:44;;;;;;;10.53;6.00;;;1.00;99.90;;;;;;5029657;28;20177;-61
2022/04/02 05:25:10;;;;;;;14.80;5.80;;;1.00;99.90;;;;;;5029811;28;20182;-61
2022/04/02 05:27:37;;;;;;;10.57;6.13;;;0.90;99.90;;;;;;5028456;28;20209;-61
2022/04/02 05:30:04;;;;;;;11.23;5.70;;;0.90;99.90;;;;;;5028434;28;20193;-61
2022/04/02 05:32:33;;;;;;;8.00;5.37;;;0.90;99.90;;;;;;5029951;28;20174;-61
2022/04/02 05:34:59;;;;;;;9.13;4.80;;;0.90;99.90;;;;;;5026985;28;20193;-62
2022/04/02 05:37:25;;;;;;;9.90;4.67;;;0.90;99.90;;;;;;5023215;28;20667;-62
2022/04/02 05:39:52;;;;;;;8.43;4.90;;;0.90;99.90;;;;;;5029805;28;20182;-63
2022/04/02 05:42:17;;;;;;;7.83;4.80;;;0.90;99.90;;;;;;5029751;28;20224;-62
2022/04/02 05:44:43;;;;;;;9.17;5.00;;;0.90;99.90;;;;;;5029766;28;20202;-62
2022/04/02 05:47:09;;;;;;;10.03;4.83;;;0.80;99.90;;;;;;5029496;28;20535;-63
2022/04/02 05:49:36;;;;;;;7.83;4.57;;;0.80;99.90;;;;;;5029567;28;20166;-62
2022/04/02 05:52:04;;;;;;;9.40;5.17;;;0.80;99.90;;;;;;5029543;28;20240;-63
2022/04/02 05:54:31;;;;;;;17.33;5.57;;;0.80;99.90;;;;;;5029852;28;20177;-63
2022/04/02 05:56:58;;;;;;;8.20;5.10;;;0.90;99.90;;;;;;5029279;28;20633;-63
2022/04/02 05:59:24;;;;;;;15.60;5.33;;;0.90;99.90;;;;;;5028248;28;20578;-64
2022/04/02 06:01:50;;;;;;;11.03;5.20;;;1.00;99.90;;;;;;5027936;28;20188;-63
2022/04/02 06:04:16;;;;;;;15.17;5.27;;;1.00;99.90;;;;;;5029342;28;20258;-63
2022/04/02 06:06:42;;;;;;;8.50;5.23;;;1.00;99.90;;;;;;5029284;28;20681;-63
2022/04/02 06:09:08;;;;;;;12.27;4.83;;;1.00;99.90;;;;;;5029574;28;20182;-61
2022/04/02 06:11:34;;;;;;;9.37;5.20;;;0.70;99.90;;;;;;5029245;28;20304;-61
2022/04/02 06:14:00;;;;;;;10.13;5.30;;;1.20;99.90;;;;;;5029270;28;20166;-60
2022/04/02 06:16:26;;;;;;;8.43;4.40;;;1.20;99.90;;;;;;5030816;28;20189;-61
2022/04/02 06:18:53;;;;;;;6.80;4.60;;;1.20;99.90;;;;;;5032729;28;20174;-61
2022/04/02 06:21:20;;;;;;;8.30;4.40;;;1.10;99.90;;;;;;5032859;28;20196;-61
2022/04/02 06:23:46;;;;;;;9.17;4.63;;;1.10;99.90;;;;;;5032799;28;20170;-61
2022/04/02 06:26:12;;;;;;;9.83;4.57;;;1.10;99.90;;;;;;5032788;28;20296;-60
2022/04/02 06:28:39;;;;;;;11.70;4.20;;;1.10;99.90;;;;;;5032662;28;20178;-63
2022/04/02 06:31:05;;;;;;;9.87;4.17;;;0.90;99.90;;;;;;5031983;28;20276;-60
2022/04/02 06:33:34;;;;;;;10.20;4.53;;;1.40;99.90;;;;;;5032206;28;20248;-70
2022/04/02 06:36:00;;;;;;;11.50;4.43;;;1.50;99.90;;;;;;5028265;28;20181;-69
2022/04/02 06:38:27;;;;;;;13.17;4.30;;;1.60;99.90;;;;;;5032737;28;20178;-69
2022/04/02 06:40:53;;;;;;;13.27;4.60;;;1.70;99.90;;;;;;5032756;28;20208;-70
2022/04/02 06:43:20;;;;;;;6.43;3.77;;;1.70;99.90;;;;;;5032660;28;20629;-69
2022/04/02 06:45:46;;;;;;;9.37;4.03;;;1.70;99.90;;;;;;5030423;28;20225;-69
2022/04/02 06:48:13;;;;;;;8.47;4.37;;;1.80;99.90;;;;;;5032935;28;20259;-68
2022/04/02 06:50:40;;;;;;;12.23;4.47;;;1.90;99.90;;;;;;5032609;28;20285;-68
2022/04/02 06:53:06;;;;;;;8.63;4.53;;;1.90;99.90;;;;;;5032038;28;20243;-67
2022/04/02 06:55:32;;;;;;;8.77;4.50;;;2.00;99.90;;;;;;5031123;28;20170;-67
2022/04/02 06:57:59;;;;;;;7.90;4.80;;;2.00;99.90;;;;;;5032686;28;20177;-71
2022/04/02 07:00:25;;;;;;;12.73;4.67;;;2.10;99.90;;;;;;5032613;28;20616;-71
2022/04/02 07:02:51;;;;;;;12.10;4.47;;;2.10;99.90;;;;;;5032347;28;20193;-69
2022/04/02 07:05:20;;;;;;;15.33;4.37;;;2.10;99.90;;;;;;5032501;28;20182;-70
2022/04/02 07:07:47;;;;;;;9.13;4.73;;;2.20;99.90;;;;;;5032530;28;20216;-70
2022/04/02 07:10:13;;;;;;;10.40;3.50;;;2.20;99.90;;;;;;5032556;28;20281;-70
2022/04/02 07:12:40;;;;;;;10.10;3.93;;;2.40;99.90;;;;;;5030795;28;20178;-69
2022/04/02 07:15:07;;;;;;;7.80;3.67;;;2.50;99.90;;;;;;5029577;28;20261;-68
2022/04/02 07:17:34;;;;;;;9.87;3.73;;;2.70;99.90;;;;;;5012306;28;20225;-69
2022/04/02 07:20:00;;;;;;;10.87;3.70;;;2.70;99.90;;;;;;5012381;28;20185;-67
2022/04/02 07:22:27;;;;;;;12.77;4.03;;;2.80;99.90;;;;;;5027506;28;20173;-70
2022/04/02 07:24:55;;;;;;;9.27;3.77;;;2.80;99.90;;;;;;5029925;28;20182;-70
2022/04/02 07:27:23;;;;;;;4.77;3.57;;;3.00;99.90;;;;;;5030610;28;20284;-69
2022/04/02 07:29:52;;;;;;;7.97;3.97;;;3.10;99.90;;;;;;5031674;28;20174;-69
2022/04/02 07:32:19;;;;;;;8.80;4.10;;;3.30;99.90;;;;;;5031798;28;20210;-71
2022/04/02 07:34:45;;;;;;;8.23;4.20;;;3.50;99.90;;;;;;5031840;28;20178;-69
2022/04/02 07:37:44;;;;;;;10.23;3.83;;;3.70;99.90;;;;;;5031724;28;20174;-68
2022/04/02 07:40:42;;;;;;;8.93;3.90;;;4.00;99.90;;;;;;5031689;28;20178;-67
2022/04/02 07:43:41;;;;;;;7.70;3.23;;;4.20;99.90;;;;;;5009576;28;20194;-72
2022/04/02 07:46:14;;;;;;;9.67;2.50;;;4.50;99.90;;;;;;5011377;28;20257;-63
2022/04/02 07:48:43;;;;;;;5.27;1.70;;;4.70;99.90;;;;;;5021858;28;20260;-64
2022/04/02 07:51:15;;;;;;;4.27;2.10;;;4.90;99.90;;;;;;5031577;28;20653;-62
2022/04/02 07:53:53;;;;;;;5.27;2.13;;;5.30;99.90;;;;;;5031682;28;20182;-72
2022/04/02 07:56:30;;;;;;;4.27;1.87;;;5.60;99.90;;;;;;5030075;28;20185;-71
2022/04/02 07:59:09;;;;;;;3.40;1.77;;;5.90;99.90;;;;;;5029733;28;20256;-72
2022/04/02 08:01:36;;;;;;;3.47;1.37;;;6.10;99.90;;;;;;5031088;28;20239;-60
2022/04/02 08:04:05;;;;;;;2.80;1.20;;;6.10;99.90;;;;;;5031353;28;20257;-60
2022/04/02 08:06:37;;;;;;;1.27;0.97;;;6.20;99.90;;;;;;5029837;28;20224;-60
2022/04/02 08:09:04;;;;;;;5.70;1.50;;;6.30;99.90;;;;;;5011296;28;20656;-60
2022/04/02 08:11:31;;;;;;;2.90;1.50;;;6.40;99.90;;;;;;5022599;28;20212;-60
2022/04/02 08:13:57;;;;;;;5.03;2.03;;;6.50;99.90;;;;;;5031167;28;20637;-62
2022/04/02 08:16:23;;;;;;;3.80;1.70;;;6.70;99.90;;;;;;5030718;28;20170;-62
2022/04/02 08:18:51;;;;;;;5.77;1.70;;;6.80;99.90;;;;;;5031122;28;20319;-62
2022/04/02 08:21:17;;;;;;;3.43;1.90;;;7.20;99.90;;;;;;5030911;28;20173;-62
2022/04/02 08:23:43;;;;;;;5.60;1.70;;;7.80;99.90;;;;;;5030054;28;20837;-60
2022/04/02 08:26:43;;;;;;;4.77;1.73;;;10.20;99.90;;;;;;5046147;28;20279;-61
2022/04/02 08:29:36;;;;;;;2.93;2.00;;;11.10;99.90;;;;;;5030969;28;20170;-63
2022/04/02 08:32:25;;;;;;;3.10;2.08;;;13.10;99.90;;;;;;5029243;28;20277;-64
2022/04/02 08:35:06;;;;;;;3.28;1.50;;;14.10;99.90;;;;;;5030781;28;20691;-64
2022/04/02 08:37:41;;;;;;;7.10;1.92;;;15.20;99.90;;;;;;5030911;28;20598;-64
2022/04/02 08:40:26;;;;;;;3.40;1.67;;;16.20;99.90;;;;;;5028119;28;20174;-64
2022/04/02 08:43:00;;;;;;;4.07;2.15;;;15.40;99.90;;;;;;5030644;28;20185;-64
2022/04/02 08:45:30;;;;;;;6.10;2.40;;;14.20;99.90;;;;;;5030340;28;20176;-64
2022/04/02 08:48:24;;;;;;;4.35;2.17;;;14.10;99.90;;;;;;5030464;28;20202;-64
2022/04/02 08:51:13;;;;;;;7.10;2.80;;;12.40;99.90;;;;;;5028904;28;20177;-64
2022/04/02 08:53:57;;;;;;;6.47;2.75;;;12.80;99.90;;;;;;5030420;28;20174;-64
2022/04/02 08:56:28;;;;;;;5.35;2.83;;;13.50;99.90;;;;;;5029298;28;20589;-64
2022/04/02 08:59:00;;;;;;;7.57;2.70;;;13.70;99.90;;;;;;5030272;28;20213;-65
2022/04/02 09:01:37;;;;;;;5.35;2.88;;;13.70;99.90;;;;;;5028892;28;20193;-65
2022/04/02 09:04:24;;;;;;;7.35;2.95;;;14.00;99.90;;;;;;5030675;28;20200;-65
2022/04/02 09:07:08;;;;;;;4.80;3.00;;;12.60;99.90;;;;;;5030226;28;20201;-62
2022/04/02 09:09:53;;;;;;;5.93;3.03;;;11.90;99.90;;;;;;5029884;28;20538;-61
2022/04/02 09:12:37;;;;;;;6.63;3.20;;;11.70;99.90;;;;;;5026210;28;20178;-61
2022/04/02 09:15:50;;;;;;;4.40;3.20;;;10.30;99.90;;;;;;5030137;28;20660;-61
2022/04/02 09:18:34;;;;;;;9.40;3.30;;;9.40;99.90;;;;;;5029242;28;20174;-61
2022/04/02 09:21:14;;;;;;;8.05;4.00;;;9.40;99.90;;;;;;5029974;28;20752;-61
2022/04/02 09:24:06;;;;;;;6.93;3.70;;;8.90;99.90;;;;;;5029927;28;20166;-62
2022/04/02 09:26:51;;;;;;;6.53;3.90;;;8.90;99.90;;;;;;5018697;28;20700;-62
2022/04/02 09:29:17;;;;;;;10.30;4.03;;;9.90;99.90;;;;;;5030178;28;20176;-62
2022/04/02 09:32:06;;;;;;;10.23;3.92;;;10.30;99.90;;;;;;5030155;28;20177;-62
2022/04/02 09:35:02;;;;;;;8.57;4.65;;;10.00;99.90;;;;;;5028803;28;20188;-62
2022/04/02 09:38:03;;;;;;;8.30;4.07;;;10.40;99.90;;;;;;5030092;28;20178;-62
2022/04/02 09:40:51;;;;;;;13.17;4.40;;;10.30;99.90;;;;;;5030090;28;20625;-62
2022/04/02 09:43:37;;;;;;;9.23;3.92;;;10.90;99.90;;;;;;5030055;28;20174;-62
2022/04/02 09:46:40;;;;;;;15.07;4.55;;;13.40;99.90;;;;;;5029651;28;20217;-62
2022/04/02 09:49:06;;;;;;;5.60;3.92;;;15.10;99.90;;;;;;5029987;28;20694;-62
2022/04/02 09:51:34;;;;;;;9.55;4.40;;;15.40;99.90;;;;;;5031632;28;20174;-62
2022/04/02 09:54:14;;;;;;;12.65;4.65;;;15.90;99.90;;;;;;5033890;28;20197;-62
2022/04/02 09:56:43;;;;;;;10.82;4.50;;;14.10;99.90;;;;;;5032546;28;20667;-61
2022/04/02 09:59:41;;;;;;;7.30;4.82;;;14.50;99.90;;;;;;5033641;28;20184;-62
2022/04/02 10:02:13;;;;;;;8.73;4.35;;;15.00;99.90;;;;;;5028635;28;20186;-61
2022/04/02 10:04:42;;;;;;;10.70;4.25;;;16.90;99.90;;;;;;5033757;28;20170;-62
2022/04/02 10:07:22;;;;;;;8.85;4.82;;;17.90;99.90;;;;;;5033796;28;20343;-62
2022/04/02 10:09:53;;;;;;;7.68;4.68;;;17.50;99.90;;;;;;5032220;28;20178;-61
2022/04/02 10:12:19;;;;;;;6.35;4.00;;;15.40;99.90;;;;;;5033577;28;20178;-62
2022/04/02 10:14:47;;;;;;;5.47;4.00;;;16.50;99.90;;;;;;5033577;28;20633;-62
2022/04/02 10:17:14;;;;;;;8.20;4.78;;;17.20;99.90;;;;;;5033303;28;20178;-61
2022/04/02 10:19:40;;;;;;;8.63;3.78;;;17.50;99.90;;;;;;5033102;28;20249;-62
2022/04/02 10:22:11;;;;;;;10.95;4.50;;;19.10;99.90;;;;;;5033324;28;20712;-62
2022/04/02 10:24:47;;;;;;;6.28;4.25;;;18.60;99.90;;;;;;5033208;28;20626;-62
2022/04/02 10:27:34;;;;;;;8.20;3.92;;;18.50;99.90;;;;;;5033269;28;20213;-62
2022/04/02 10:30:03;;;;;;;7.30;4.10;;;17.40;99.90;;;;;;5033128;28;20173;-62
2022/04/02 10:32:41;;;;;;;5.93;4.20;;;16.30;99.90;;;;;;5033089;28;20178;-62
2022/04/02 10:35:09;;;;;;;7.65;4.15;;;17.50;99.90;;;;;;5032891;28;20188;-62
2022/04/02 10:37:39;;;;;;;6.22;4.22;;;19.10;99.90;;;;;;5033010;28;20174;-62
2022/04/02 10:40:10;;;;;;;7.80;4.15;;;19.70;99.90;;;;;;5032999;28;20204;-63
2022/04/02 10:42:42;;;;;;;5.63;3.55;;;20.20;99.90;;;;;;5032836;28;20173;-63
2022/04/02 10:45:11;;;;;;;5.25;3.58;;;20.00;99.90;;;;;;5032798;28;20174;-62
2022/04/02 10:47:48;;;;;;;4.22;3.28;;;20.50;99.90;;;;;;5032573;28;20241;-63
2022/04/02 10:50:19;;;;;;;5.00;3.65;;;20.50;99.90;;;;;;5031281;28;20177;-62
2022/04/02 10:52:49;;;;;;;5.03;3.50;;;18.00;99.90;;;;;;5032723;28;20178;-62
2022/04/02 10:55:17;;;;;;;6.80;3.22;;;16.20;99.90;;;;;;5032702;28;20174;-62
2022/04/02 10:57:44;;;;;;;6.40;3.47;;;16.40;99.90;;;;;;5032557;28;20205;-62
2022/04/02 11:00:11;;;;;;;5.60;3.15;;;17.10;99.90;;;;;;5032552;28;20177;-63
2022/04/02 11:02:43;;;;;;;4.60;2.88;;;17.70;99.90;;;;;;5031312;28;20166;-62
2022/04/02 11:05:14;;;;;;;6.05;3.30;;;17.30;99.90;;;;;;5032362;28;20177;-62
2022/04/02 11:07:43;;;;;;;4.75;3.25;;;16.00;99.90;;;;;;5032413;28;20255;-62
2022/04/02 11:10:16;;;;;;;5.18;2.78;;;17.70;99.90;;;;;;5032455;28;20601;-62
2022/04/02 11:12:48;;;;;;;4.35;2.35;;;17.90;99.90;;;;;;5032298;28;20224;-62
2022/04/02 11:15:24;;;;;;;6.78;2.63;;;18.10;99.90;;;;;;5032357;28;20166;-62
2022/04/02 11:17:55;;;;;;;4.00;2.65;;;16.30;99.90;;;;;;5031392;28;20191;-62
2022/04/02 11:20:29;;;;;;;4.80;2.92;;;15.60;99.90;;;;;;5031645;28;20173;-62
2022/04/02 11:22:56;;;;;;;5.90;3.00;;;15.20;99.90;;;;;;5012238;28;20178;-63
2022/04/02 11:25:29;;;;;;;5.32;3.10;;;14.30;99.90;;;;;;5029126;28;20178;-62
2022/04/02 11:28:00;;;;;;;7.68;3.80;;;13.80;99.90;;;;;;5031763;28;20248;-61
2022/04/02 11:30:30;;;;;;;4.55;3.03;;;12.90;99.90;;;;;;5031815;28;20166;-61
2022/04/02 11:33:12;;;;;;;8.02;4.07;;;12.80;99.90;;;;;;5031649;28;20241;-61
2022/04/02 11:35:40;;;;;;;5.97;2.90;;;13.20;99.90;;;;;;5031754;28;20633;-62
2022/04/02 11:38:22;;;;;;;5.97;2.50;;;13.20;99.90;;;;;;5031799;28;20181;-61
2022/04/02 11:41:20;;;;;;;3.00;2.28;;;12.80;99.90;;;;;;5031589;28;20170;-62
2022/04/02 11:43:48;;;;;;;9.70;3.08;;;12.30;99.90;;;;;;5031591;28;20229;-62
2022/04/02 11:46:16;;;;;;;4.85;2.33;;;11.80;99.90;;;;;;5031141;28;20221;-62
2022/04/02 11:48:54;;;;;;;8.75;2.75;;;12.00;99.90;;;;;;5031042;28;20661;-62
2022/04/02 11:51:19;;;;;;;5.78;2.60;;;11.80;99.90;;;;;;5031628;28;20204;-62
2022/04/02 11:53:46;;;;;;;5.85;2.63;;;11.70;99.90;;;;;;5030269;28;20208;-62
2022/04/02 11:56:28;;;;;;;5.38;2.20;;;11.80;99.90;;;;;;5031491;28;20235;-62
2022/04/02 11:58:57;;;;;;;3.45;2.40;;;11.80;99.90;;;;;;5031664;28;20205;-62
2022/04/02 12:01:23;;;;;;;5.80;2.90;;;11.00;99.90;;;;;;5030170;28;20229;-62
2022/04/02 12:04:09;;;;;;;6.13;2.60;;;10.70;99.90;;;;;;5031438;28;20178;-62
2022/04/02 12:06:36;;;;;;;4.32;2.28;;;11.10;99.90;;;;;;5031299;28;20220;-62
2022/04/02 12:09:13;;;;;;;5.00;2.05;;;11.20;99.90;;;;;;5031262;28;20182;-62
2022/04/02 12:11:42;;;;;;;8.48;2.28;;;11.30;99.90;;;;;;5063118;28;20659;-62
2022/04/02 12:14:08;;;;;;;8.48;2.00;;;10.80;99.90;;;;;;5030973;28;20510;-62
2022/04/02 12:16:38;;;;;;;4.23;2.00;;;10.20;99.90;;;;;;5031228;28;20251;-62
2022/04/02 12:19:09;;;;;;;4.03;2.37;;;10.60;99.90;;;;;;5062951;28;20178;-62
2022/04/02 12:21:37;;;;;;;7.32;2.55;;;11.10;99.90;;;;;;5030633;28;20178;-62
2022/04/02 12:24:04;;;;;;;3.92;2.20;;;11.40;99.90;;;;;;5030812;28;20222;-62
2022/04/02 12:26:31;;;;;;;2.80;1.50;;;11.40;99.90;;;;;;5030868;28;20228;-62
2022/04/02 12:29:01;;;;;;;3.67;2.03;;;11.00;99.90;;;;;;5030535;28;20173;-62
2022/04/02 12:31:30;;;;;;;3.75;1.95;;;11.60;99.90;;;;;;5030907;28;20196;-61
2022/04/02 12:33:58;;;;;;;3.00;1.53;;;10.50;99.90;;;;;;5030927;28;20170;-61
2022/04/02 12:36:31;;;;;;;5.20;1.83;;;10.20;99.90;;;;;;5029866;28;20173;-62
2022/04/02 12:39:04;;;;;;;4.83;1.90;;;10.50;99.90;;;;;;5026203;28;20186;-62
2022/04/02 12:41:30;;;;;;;3.93;2.20;;;10.50;99.90;;;;;;5011051;28;20256;-62
2022/04/02 12:44:06;;;;;;;4.87;1.90;;;10.50;99.90;;;;;;5010834;28;20182;-62
2022/04/02 12:46:32;;;;;;;5.00;1.90;;;10.40;99.90;;;;;;5009485;28;20257;-62
2022/04/02 12:48:59;;;;;;;6.90;2.63;;;10.30;99.90;;;;;;5011654;28;20166;-62
2022/04/02 12:51:25;;;;;;;9.50;3.17;;;10.00;99.90;;;;;;5025310;28;20261;-61
2022/04/02 12:54:03;;;;;;;6.60;3.03;;;9.70;99.90;;;;;;5030642;28;20251;-62
2022/04/02 12:56:35;;;;;;;7.47;3.90;;;9.70;99.90;;;;;;5030676;28;20166;-62
2022/04/02 12:59:01;;;;;;;7.13;3.60;;;9.70;99.90;;;;;;5029059;28;20540;-62
2022/04/02 13:01:33;;;;;;;8.30;3.20;;;9.60;99.90;;;;;;5030151;28;20170;-62
2022/04/02 13:04:02;;;;;;;6.57;3.27;;;9.50;99.90;;;;;;5030598;28;20271;-62
2022/04/02 13:06:29;;;;;;;6.10;3.47;;;9.30;99.90;;;;;;5030185;28;20189;-62
2022/04/02 13:09:19;;;;;;;6.17;3.63;;;9.40;99.90;;;;;;5030124;28;20278;-62